sensor_id;sensor_type;location;lat;lon;timestamp;pressure;altitude;pressure_sealevel;temperature;humidity
69187;BME280;56301;56.864;60.554;2022-07-29T00:00:38;98686.53;;;23.63;56.36
69187;BME280;56301;56.864;60.554;2022-07-29T00:03:01;98682.44;;;23.75;56.13
69187;BME280;56301;56.864;60.554;2022-07-29T00:05:24;98690.50;;;23.83;56.57
69187;BME280;56301;56.864;60.554;2022-07-29T00:07:46;98696.38;;;23.87;56.20
69187;BME280;56301;56.864;60.554;2022-07-29T00:10:08;98701.72;;;23.95;55.17
69187;BME280;56301;56.864;60.554;2022-07-29T00:12:31;98698.00;;;23.96;55.59
69187;BME280;56301;56.864;60.554;2022-07-29T00:14:54;98698.00;;;23.96;55.96
69187;BME280;56301;56.864;60.554;2022-07-29T00:17:16;98702.88;;;24.00;55.16
69187;BME280;56301;56.864;60.554;2022-07-29T00:19:39;98707.41;;;24.00;54.57
69187;BME280;56301;56.864;60.554;2022-07-29T00:22:01;98704.53;;;24.01;54.66
69187;BME280;56301;56.864;60.554;2022-07-29T00:24:23;98710.59;;;24.03;55.20
69187;BME280;56301;56.864;60.554;2022-07-29T00:26:46;98709.13;;;24.01;53.96
69187;BME280;56301;56.864;60.554;2022-07-29T00:29:08;98710.63;;;23.41;53.53
69187;BME280;56301;56.864;60.554;2022-07-29T00:31:31;98718.47;;;23.20;53.63
69187;BME280;56301;56.864;60.554;2022-07-29T00:33:53;98713.66;;;23.07;54.35
69187;BME280;56301;56.864;60.554;2022-07-29T00:36:15;98718.09;;;22.92;54.85
69187;BME280;56301;56.864;60.554;2022-07-29T00:38:38;98705.00;;;23.12;56.08
69187;BME280;56301;56.864;60.554;2022-07-29T00:41:00;98715.09;;;23.26;56.74
69187;BME280;56301;56.864;60.554;2022-07-29T00:43:23;98707.28;;;23.31;57.32
69187;BME280;56301;56.864;60.554;2022-07-29T00:45:45;98714.53;;;23.39;57.46
69187;BME280;56301;56.864;60.554;2022-07-29T00:48:08;98720.22;;;23.44;56.88
69187;BME280;56301;56.864;60.554;2022-07-29T00:50:30;98719.97;;;23.62;56.48
69187;BME280;56301;56.864;60.554;2022-07-29T00:52:53;98709.63;;;23.73;56.07
69187;BME280;56301;56.864;60.554;2022-07-29T00:55:15;98710.25;;;23.84;56.00
69187;BME280;56301;56.864;60.554;2022-07-29T00:57:38;98709.34;;;23.91;55.48
69187;BME280;56301;56.864;60.554;2022-07-29T01:00:01;98707.78;;;23.97;55.29
69187;BME280;56301;56.864;60.554;2022-07-29T01:02:24;98718.22;;;24.00;55.29
69187;BME280;56301;56.864;60.554;2022-07-29T01:04:46;98719.19;;;24.07;54.57
69187;BME280;56301;56.864;60.554;2022-07-29T01:07:08;98718.81;;;24.10;55.29
69187;BME280;56301;56.864;60.554;2022-07-29T01:09:32;98718.13;;;24.16;54.71
69187;BME280;56301;56.864;60.554;2022-07-29T01:11:55;98720.28;;;23.98;52.62
69187;BME280;56301;56.864;60.554;2022-07-29T01:14:18;98723.63;;;23.46;53.01
69187;BME280;56301;56.864;60.554;2022-07-29T01:17:01;98728.22;;;23.29;54.59
69187;BME280;56301;56.864;60.554;2022-07-29T01:21:57;98727.78;;;23.09;54.97
69187;BME280;56301;56.864;60.554;2022-07-29T01:24:39;98731.97;;;23.20;56.35
69187;BME280;56301;56.864;60.554;2022-07-29T01:27:23;98733.94;;;23.34;57.04
69187;BME280;56301;56.864;60.554;2022-07-29T01:29:54;98729.03;;;23.38;57.39
69187;BME280;56301;56.864;60.554;2022-07-29T01:32:22;98735.06;;;23.48;55.98
69187;BME280;56301;56.864;60.554;2022-07-29T01:39:40;98723.06;;;23.82;54.92
69187;BME280;56301;56.864;60.554;2022-07-29T01:44:33;98715.94;;;23.89;54.81
69187;BME280;56301;56.864;60.554;2022-07-29T01:46:57;98715.22;;;23.95;54.57
69187;BME280;56301;56.864;60.554;2022-07-29T01:49:26;98719.44;;;23.97;54.65
69187;BME280;56301;56.864;60.554;2022-07-29T01:51:50;98722.78;;;23.99;54.45
69187;BME280;56301;56.864;60.554;2022-07-29T01:54:30;98724.09;;;24.03;54.30
69187;BME280;56301;56.864;60.554;2022-07-29T01:56:56;98723.09;;;24.05;54.18
69187;BME280;56301;56.864;60.554;2022-07-29T01:59:20;98722.91;;;24.06;54.47
69187;BME280;56301;56.864;60.554;2022-07-29T02:01:43;98712.09;;;24.06;53.55
69187;BME280;56301;56.864;60.554;2022-07-29T02:04:08;98713.91;;;23.91;53.04
69187;BME280;56301;56.864;60.554;2022-07-29T02:06:32;98716.84;;;23.42;52.56
69187;BME280;56301;56.864;60.554;2022-07-29T02:08:55;98723.03;;;23.19;53.78
69187;BME280;56301;56.864;60.554;2022-07-29T02:11:19;98725.09;;;23.09;53.92
69187;BME280;56301;56.864;60.554;2022-07-29T02:13:41;98722.91;;;23.04;54.21
69187;BME280;56301;56.864;60.554;2022-07-29T02:16:05;98724.75;;;23.20;55.79
69187;BME280;56301;56.864;60.554;2022-07-29T02:18:28;98720.97;;;23.29;56.40
69187;BME280;56301;56.864;60.554;2022-07-29T02:20:53;98723.63;;;23.38;56.78
69187;BME280;56301;56.864;60.554;2022-07-29T02:23:20;98712.13;;;23.44;56.94
69187;BME280;56301;56.864;60.554;2022-07-29T02:25:43;98713.78;;;23.53;56.29
69187;BME280;56301;56.864;60.554;2022-07-29T02:28:06;98717.75;;;23.65;55.66
69187;BME280;56301;56.864;60.554;2022-07-29T02:30:29;98708.59;;;23.74;55.36
69187;BME280;56301;56.864;60.554;2022-07-29T02:32:52;98707.53;;;23.84;54.74
69187;BME280;56301;56.864;60.554;2022-07-29T02:35:15;98705.31;;;23.87;54.61
69187;BME280;56301;56.864;60.554;2022-07-29T02:37:38;98705.13;;;23.89;55.21
69187;BME280;56301;56.864;60.554;2022-07-29T02:40:02;98710.84;;;23.94;54.99
69187;BME280;56301;56.864;60.554;2022-07-29T02:42:26;98705.94;;;23.97;55.06
69187;BME280;56301;56.864;60.554;2022-07-29T02:44:49;98699.13;;;24.01;54.77
69187;BME280;56301;56.864;60.554;2022-07-29T02:49:38;98704.72;;;23.38;52.72
69187;BME280;56301;56.864;60.554;2022-07-29T02:52:04;98701.63;;;23.18;53.62
69187;BME280;56301;56.864;60.554;2022-07-29T02:59:51;98690.97;;;23.24;56.05
69187;BME280;56301;56.864;60.554;2022-07-29T03:02:14;98687.75;;;23.29;57.34
69187;BME280;56301;56.864;60.554;2022-07-29T03:04:38;98683.97;;;23.38;56.87
69187;BME280;56301;56.864;60.554;2022-07-29T03:07:02;98694.06;;;23.44;56.69
69187;BME280;56301;56.864;60.554;2022-07-29T03:09:25;98690.97;;;23.55;56.32
69187;BME280;56301;56.864;60.554;2022-07-29T03:11:48;98681.28;;;23.69;55.42
69187;BME280;56301;56.864;60.554;2022-07-29T03:14:11;98679.56;;;23.76;55.23
69187;BME280;56301;56.864;60.554;2022-07-29T03:16:34;98675.94;;;23.84;55.55
69187;BME280;56301;56.864;60.554;2022-07-29T03:18:57;98683.50;;;23.89;54.96
69187;BME280;56301;56.864;60.554;2022-07-29T03:21:20;98685.84;;;23.92;54.85
69187;BME280;56301;56.864;60.554;2022-07-29T03:23:45;98673.03;;;23.94;54.45
69187;BME280;56301;56.864;60.554;2022-07-29T03:26:08;98668.94;;;23.98;54.13
69187;BME280;56301;56.864;60.554;2022-07-29T03:28:30;98669.56;;;24.00;54.26
69187;BME280;56301;56.864;60.554;2022-07-29T03:30:53;98673.44;;;24.06;54.02
69187;BME280;56301;56.864;60.554;2022-07-29T03:33:15;98668.69;;;24.08;54.57
69187;BME280;56301;56.864;60.554;2022-07-29T03:35:38;98672.13;;;23.78;52.46
69187;BME280;56301;56.864;60.554;2022-07-29T03:38:00;98663.59;;;23.36;52.79
69187;BME280;56301;56.864;60.554;2022-07-29T03:40:25;98680.56;;;23.13;54.05
69187;BME280;56301;56.864;60.554;2022-07-29T03:42:48;98686.66;;;23.07;54.44
69187;BME280;56301;56.864;60.554;2022-07-29T03:45:15;98669.63;;;22.98;54.57
69187;BME280;56301;56.864;60.554;2022-07-29T03:47:42;98668.06;;;23.12;55.37
69187;BME280;56301;56.864;60.554;2022-07-29T03:50:08;98666.50;;;23.26;56.71
69187;BME280;56301;56.864;60.554;2022-07-29T03:52:32;98662.75;;;23.35;57.22
69187;BME280;56301;56.864;60.554;2022-07-29T03:54:55;98668.25;;;23.42;57.46
69187;BME280;56301;56.864;60.554;2022-07-29T03:57:18;98662.16;;;23.48;57.19
69187;BME280;56301;56.864;60.554;2022-07-29T03:59:40;98666.78;;;23.62;56.41
69187;BME280;56301;56.864;60.554;2022-07-29T04:02:04;98669.94;;;23.74;55.42
69187;BME280;56301;56.864;60.554;2022-07-29T04:04:27;98646.44;;;23.83;55.86
69187;BME280;56301;56.864;60.554;2022-07-29T04:06:49;98654.94;;;23.94;54.84
69187;BME280;56301;56.864;60.554;2022-07-29T04:09:11;98649.19;;;23.97;55.08
69187;BME280;56301;56.864;60.554;2022-07-29T04:11:34;98653.66;;;24.05;55.28
69187;BME280;56301;56.864;60.554;2022-07-29T04:13:57;98653.94;;;24.10;54.61
69187;BME280;56301;56.864;60.554;2022-07-29T04:16:20;98651.91;;;24.12;54.58
69187;BME280;56301;56.864;60.554;2022-07-29T04:18:42;98653.59;;;24.13;53.20
69187;BME280;56301;56.864;60.554;2022-07-29T04:21:05;98650.88;;;24.13;53.84
69187;BME280;56301;56.864;60.554;2022-07-29T04:23:29;98643.25;;;24.17;54.33
69187;BME280;56301;56.864;60.554;2022-07-29T04:25:51;98636.28;;;24.22;53.69
69187;BME280;56301;56.864;60.554;2022-07-29T04:28:13;98643.00;;;24.26;53.47
69187;BME280;56301;56.864;60.554;2022-07-29T04:30:36;98645.25;;;24.23;53.63
69187;BME280;56301;56.864;60.554;2022-07-29T04:32:59;98642.69;;;24.21;53.72
69187;BME280;56301;56.864;60.554;2022-07-29T04:35:22;98642.91;;;24.20;53.08
69187;BME280;56301;56.864;60.554;2022-07-29T04:37:44;98644.16;;;23.63;51.77
69187;BME280;56301;56.864;60.554;2022-07-29T04:40:06;98640.56;;;23.17;51.68
69187;BME280;56301;56.864;60.554;2022-07-29T04:42:29;98642.50;;;23.00;52.34
69187;BME280;56301;56.864;60.554;2022-07-29T04:44:51;98641.75;;;23.14;53.80
69187;BME280;56301;56.864;60.554;2022-07-29T04:47:14;98654.56;;;23.20;54.33
69187;BME280;56301;56.864;60.554;2022-07-29T04:49:39;98642.78;;;23.13;53.65
69187;BME280;56301;56.864;60.554;2022-07-29T04:52:02;98639.47;;;22.87;53.50
69187;BME280;56301;56.864;60.554;2022-07-29T04:54:24;98633.09;;;22.88;53.02
69187;BME280;56301;56.864;60.554;2022-07-29T04:56:47;98640.19;;;22.80;53.71
69187;BME280;56301;56.864;60.554;2022-07-29T04:59:09;98641.47;;;23.01;54.42
69187;BME280;56301;56.864;60.554;2022-07-29T05:01:31;98643.72;;;23.28;56.56
69187;BME280;56301;56.864;60.554;2022-07-29T05:03:54;98628.91;;;23.47;57.42
69187;BME280;56301;56.864;60.554;2022-07-29T05:06:16;98623.91;;;23.67;57.48
69187;BME280;56301;56.864;60.554;2022-07-29T05:08:39;98617.72;;;23.82;57.35
69187;BME280;56301;56.864;60.554;2022-07-29T05:11:01;98625.38;;;23.93;57.25
69187;BME280;56301;56.864;60.554;2022-07-29T05:13:23;98623.63;;;24.00;57.15
69187;BME280;56301;56.864;60.554;2022-07-29T05:15:46;98625.06;;;24.11;56.03
69187;BME280;56301;56.864;60.554;2022-07-29T05:18:08;98610.84;;;24.32;55.42
69187;BME280;56301;56.864;60.554;2022-07-29T05:20:31;98617.13;;;24.47;54.93
69187;BME280;56301;56.864;60.554;2022-07-29T05:22:54;98618.81;;;24.48;54.88
69187;BME280;56301;56.864;60.554;2022-07-29T05:25:17;98613.94;;;24.43;53.32
69187;BME280;56301;56.864;60.554;2022-07-29T05:27:39;98607.66;;;23.75;52.79
69187;BME280;56301;56.864;60.554;2022-07-29T05:30:02;98611.19;;;23.45;51.70
69187;BME280;56301;56.864;60.554;2022-07-29T05:32:24;98615.19;;;23.26;51.00
69187;BME280;56301;56.864;60.554;2022-07-29T05:34:46;98622.53;;;23.09;50.77
69187;BME280;56301;56.864;60.554;2022-07-29T05:37:09;98620.75;;;23.33;52.12
69187;BME280;56301;56.864;60.554;2022-07-29T05:39:31;98618.31;;;23.46;52.78
69187;BME280;56301;56.864;60.554;2022-07-29T05:41:54;98606.75;;;23.52;53.40
69187;BME280;56301;56.864;60.554;2022-07-29T05:44:16;98613.59;;;23.63;53.52
69187;BME280;56301;56.864;60.554;2022-07-29T05:46:39;98604.97;;;23.67;53.59
69187;BME280;56301;56.864;60.554;2022-07-29T05:49:01;98603.91;;;23.76;53.51
69187;BME280;56301;56.864;60.554;2022-07-29T05:51:24;98607.94;;;23.81;53.38
69187;BME280;56301;56.864;60.554;2022-07-29T05:53:46;98603.13;;;23.91;53.32
69187;BME280;56301;56.864;60.554;2022-07-29T05:56:08;98592.03;;;23.86;53.27
69187;BME280;56301;56.864;60.554;2022-07-29T05:58:31;98589.00;;;23.81;53.95
69187;BME280;56301;56.864;60.554;2022-07-29T06:00:53;98599.69;;;23.74;54.17
69187;BME280;56301;56.864;60.554;2022-07-29T06:03:16;98603.44;;;23.73;54.04
69187;BME280;56301;56.864;60.554;2022-07-29T06:05:38;98604.19;;;23.59;53.53
69187;BME280;56301;56.864;60.554;2022-07-29T06:08:01;98603.41;;;23.50;55.10
69187;BME280;56301;56.864;60.554;2022-07-29T06:10:23;98608.81;;;23.50;55.01
69187;BME280;56301;56.864;60.554;2022-07-29T06:12:45;98612.78;;;23.62;55.19
69187;BME280;56301;56.864;60.554;2022-07-29T06:15:08;98598.78;;;23.82;54.65
69187;BME280;56301;56.864;60.554;2022-07-29T06:17:31;98594.34;;;23.89;54.42
69187;BME280;56301;56.864;60.554;2022-07-29T06:19:53;98590.56;;;23.98;54.37
69187;BME280;56301;56.864;60.554;2022-07-29T06:22:15;98595.72;;;24.08;54.71
69187;BME280;56301;56.864;60.554;2022-07-29T06:24:38;98592.38;;;24.20;54.32
69187;BME280;56301;56.864;60.554;2022-07-29T06:27:03;98599.00;;;24.33;53.84
69187;BME280;56301;56.864;60.554;2022-07-29T06:29:26;98600.31;;;24.37;53.98
69187;BME280;56301;56.864;60.554;2022-07-29T06:31:48;98592.38;;;24.35;53.82
69187;BME280;56301;56.864;60.554;2022-07-29T06:34:10;98587.44;;;24.39;53.84
69187;BME280;56301;56.864;60.554;2022-07-29T06:36:36;98588.47;;;24.38;53.32
69187;BME280;56301;56.864;60.554;2022-07-29T06:38:59;98584.47;;;24.34;54.08
69187;BME280;56301;56.864;60.554;2022-07-29T06:41:21;98597.88;;;24.27;53.78
69187;BME280;56301;56.864;60.554;2022-07-29T06:43:44;98592.63;;;24.25;53.68
69187;BME280;56301;56.864;60.554;2022-07-29T06:46:10;98597.41;;;24.38;53.62
69187;BME280;56301;56.864;60.554;2022-07-29T06:48:36;98592.75;;;24.32;51.67
69187;BME280;56301;56.864;60.554;2022-07-29T06:50:59;98595.53;;;23.71;50.79
69187;BME280;56301;56.864;60.554;2022-07-29T06:53:22;98593.09;;;23.53;49.32
69187;BME280;56301;56.864;60.554;2022-07-29T06:55:44;98605.44;;;23.48;48.11
69187;BME280;56301;56.864;60.554;2022-07-29T06:58:07;98605.09;;;23.28;48.32
69187;BME280;56301;56.864;60.554;2022-07-29T07:00:29;98612.91;;;23.15;47.41
69187;BME280;56301;56.864;60.554;2022-07-29T07:02:51;98612.00;;;23.22;46.51
69187;BME280;56301;56.864;60.554;2022-07-29T07:05:14;98610.59;;;23.35;46.51
69187;BME280;56301;56.864;60.554;2022-07-29T07:07:36;98600.66;;;23.35;45.70
69187;BME280;56301;56.864;60.554;2022-07-29T07:09:59;98597.63;;;23.30;44.97
69187;BME280;56301;56.864;60.554;2022-07-29T07:12:21;98603.22;;;23.28;44.90
69187;BME280;56301;56.864;60.554;2022-07-29T07:14:43;98602.63;;;23.41;44.54
69187;BME280;56301;56.864;60.554;2022-07-29T07:17:06;98596.72;;;23.38;44.60
69187;BME280;56301;56.864;60.554;2022-07-29T07:19:28;98592.66;;;23.42;44.53
69187;BME280;56301;56.864;60.554;2022-07-29T07:21:52;98600.41;;;23.45;43.56
69187;BME280;56301;56.864;60.554;2022-07-29T07:24:15;98608.91;;;23.34;43.88
69187;BME280;56301;56.864;60.554;2022-07-29T07:26:37;98601.50;;;23.27;43.68
69187;BME280;56301;56.864;60.554;2022-07-29T07:28:59;98605.09;;;23.28;43.81
69187;BME280;56301;56.864;60.554;2022-07-29T07:31:22;98599.69;;;23.28;43.78
69187;BME280;56301;56.864;60.554;2022-07-29T07:33:44;98596.97;;;23.28;43.43
69187;BME280;56301;56.864;60.554;2022-07-29T07:36:07;98608.97;;;23.25;43.66
69187;BME280;56301;56.864;60.554;2022-07-29T07:38:29;98605.59;;;23.23;43.38
69187;BME280;56301;56.864;60.554;2022-07-29T07:40:51;98610.47;;;23.28;43.17
69187;BME280;56301;56.864;60.554;2022-07-29T07:43:14;98592.59;;;23.27;43.00
69187;BME280;56301;56.864;60.554;2022-07-29T07:45:55;98604.22;;;23.27;42.88
69187;BME280;56301;56.864;60.554;2022-07-29T07:48:18;98605.97;;;23.20;44.42
69187;BME280;56301;56.864;60.554;2022-07-29T07:50:40;98606.22;;;23.34;43.64
69187;BME280;56301;56.864;60.554;2022-07-29T07:53:03;98603.84;;;23.39;43.73
69187;BME280;56301;56.864;60.554;2022-07-29T07:55:25;98604.81;;;23.38;43.22
69187;BME280;56301;56.864;60.554;2022-07-29T07:57:48;98601.13;;;23.39;42.92
69187;BME280;56301;56.864;60.554;2022-07-29T08:00:11;98602.31;;;23.36;43.25
69187;BME280;56301;56.864;60.554;2022-07-29T08:02:37;98603.50;;;23.34;43.78
69187;BME280;56301;56.864;60.554;2022-07-29T08:04:59;98598.78;;;23.36;42.79
69187;BME280;56301;56.864;60.554;2022-07-29T08:07:22;98600.47;;;23.37;42.72
69187;BME280;56301;56.864;60.554;2022-07-29T08:09:44;98599.06;;;23.41;43.18
69187;BME280;56301;56.864;60.554;2022-07-29T08:12:06;98591.81;;;23.18;42.91
69187;BME280;56301;56.864;60.554;2022-07-29T08:14:30;98591.81;;;23.18;43.19
69187;BME280;56301;56.864;60.554;2022-07-29T08:16:52;98596.84;;;23.21;42.89
69187;BME280;56301;56.864;60.554;2022-07-29T08:19:14;98604.09;;;23.21;43.21
69187;BME280;56301;56.864;60.554;2022-07-29T08:21:37;98594.50;;;23.18;43.26
69187;BME280;56301;56.864;60.554;2022-07-29T08:24:00;98592.84;;;23.17;43.07
69187;BME280;56301;56.864;60.554;2022-07-29T08:26:22;98599.19;;;23.24;42.64
69187;BME280;56301;56.864;60.554;2022-07-29T08:28:45;98598.25;;;23.09;43.32
69187;BME280;56301;56.864;60.554;2022-07-29T08:31:08;98609.09;;;23.01;43.51
69187;BME280;56301;56.864;60.554;2022-07-29T08:33:30;98600.03;;;22.86;43.94
69187;BME280;56301;56.864;60.554;2022-07-29T08:35:54;98599.41;;;22.75;43.80
69187;BME280;56301;56.864;60.554;2022-07-29T08:38:16;98597.38;;;22.69;44.05
69187;BME280;56301;56.864;60.554;2022-07-29T08:40:39;98600.31;;;22.59;44.01
69187;BME280;56301;56.864;60.554;2022-07-29T08:43:07;98607.56;;;22.51;44.03
69187;BME280;56301;56.864;60.554;2022-07-29T08:45:30;98599.47;;;22.59;43.64
69187;BME280;56301;56.864;60.554;2022-07-29T08:47:58;98602.78;;;22.77;43.55
69187;BME280;56301;56.864;60.554;2022-07-29T08:50:20;98603.88;;;22.91;43.36
69187;BME280;56301;56.864;60.554;2022-07-29T08:52:43;98602.84;;;23.00;42.95
69187;BME280;56301;56.864;60.554;2022-07-29T08:55:06;98613.59;;;23.09;42.67
69187;BME280;56301;56.864;60.554;2022-07-29T08:57:29;98612.13;;;23.06;42.75
69187;BME280;56301;56.864;60.554;2022-07-29T08:59:51;98598.56;;;23.14;42.19
69187;BME280;56301;56.864;60.554;2022-07-29T09:02:22;98612.72;;;23.16;42.05
69187;BME280;56301;56.864;60.554;2022-07-29T09:04:44;98606.59;;;22.99;42.95
69187;BME280;56301;56.864;60.554;2022-07-29T09:07:07;98602.72;;;22.94;43.01
69187;BME280;56301;56.864;60.554;2022-07-29T09:09:30;98597.16;;;22.87;42.70
69187;BME280;56301;56.864;60.554;2022-07-29T09:11:53;98597.16;;;22.87;43.37
69187;BME280;56301;56.864;60.554;2022-07-29T09:14:15;98603.88;;;22.91;43.47
69187;BME280;56301;56.864;60.554;2022-07-29T09:16:54;98591.75;;;22.87;43.79
69187;BME280;56301;56.864;60.554;2022-07-29T09:19:20;98595.13;;;22.89;44.03
69187;BME280;56301;56.864;60.554;2022-07-29T09:21:43;98592.63;;;22.88;44.18
69187;BME280;56301;56.864;60.554;2022-07-29T09:26:28;98608.13;;;22.86;44.28
69187;BME280;56301;56.864;60.554;2022-07-29T09:28:51;98614.53;;;22.85;44.65
69187;BME280;56301;56.864;60.554;2022-07-29T09:31:13;98614.25;;;22.71;44.51
69187;BME280;56301;56.864;60.554;2022-07-29T09:33:36;98611.59;;;22.63;44.69
69187;BME280;56301;56.864;60.554;2022-07-29T09:38:26;98604.97;;;22.74;44.10
69187;BME280;56301;56.864;60.554;2022-07-29T09:40:56;98595.69;;;22.76;44.13
69187;BME280;56301;56.864;60.554;2022-07-29T09:43:18;98605.47;;;22.77;43.96
69187;BME280;56301;56.864;60.554;2022-07-29T09:45:41;98609.84;;;22.78;43.88
69187;BME280;56301;56.864;60.554;2022-07-29T09:48:20;98614.88;;;22.81;44.25
69187;BME280;56301;56.864;60.554;2022-07-29T09:50:43;98614.34;;;22.86;44.45
69187;BME280;56301;56.864;60.554;2022-07-29T09:53:05;98605.13;;;22.80;44.48
69187;BME280;56301;56.864;60.554;2022-07-29T09:55:28;98617.47;;;22.67;44.56
69187;BME280;56301;56.864;60.554;2022-07-29T09:57:50;98622.03;;;22.58;44.04
69187;BME280;56301;56.864;60.554;2022-07-29T10:00:14;98619.03;;;22.53;44.61
69187;BME280;56301;56.864;60.554;2022-07-29T10:02:37;98616.34;;;22.53;44.58
69187;BME280;56301;56.864;60.554;2022-07-29T10:05:00;98627.81;;;22.55;44.50
69187;BME280;56301;56.864;60.554;2022-07-29T10:07:23;98628.75;;;22.62;44.43
69187;BME280;56301;56.864;60.554;2022-07-29T10:09:52;98624.91;;;22.56;44.79
69187;BME280;56301;56.864;60.554;2022-07-29T10:12:15;98621.72;;;22.53;45.04
69187;BME280;56301;56.864;60.554;2022-07-29T10:14:37;98620.06;;;22.52;45.29
69187;BME280;56301;56.864;60.554;2022-07-29T10:17:00;98622.41;;;22.55;45.19
69187;BME280;56301;56.864;60.554;2022-07-29T10:19:23;98627.78;;;22.63;45.67
69187;BME280;56301;56.864;60.554;2022-07-29T10:21:46;98614.25;;;22.71;46.09
69187;BME280;56301;56.864;60.554;2022-07-29T10:24:09;98632.41;;;22.86;46.31
69187;BME280;56301;56.864;60.554;2022-07-29T10:26:31;98618.22;;;23.00;46.92
69187;BME280;56301;56.864;60.554;2022-07-29T10:28:55;98617.69;;;23.04;47.41
69187;BME280;56301;56.864;60.554;2022-07-29T10:31:22;98621.34;;;23.12;48.27
69187;BME280;56301;56.864;60.554;2022-07-29T10:36:26;98604.22;;;22.96;48.73
69187;BME280;56301;56.864;60.554;2022-07-29T10:38:55;98611.16;;;22.82;49.61
69187;BME280;56301;56.864;60.554;2022-07-29T10:43:44;98615.91;;;22.72;49.71
69187;BME280;56301;56.864;60.554;2022-07-29T10:46:08;98607.19;;;22.70;49.97
69187;BME280;56301;56.864;60.554;2022-07-29T10:48:31;98608.84;;;22.71;49.88
69187;BME280;56301;56.864;60.554;2022-07-29T10:50:58;98597.72;;;22.74;49.81
69187;BME280;56301;56.864;60.554;2022-07-29T10:53:23;98605.28;;;22.79;49.88
69187;BME280;56301;56.864;60.554;2022-07-29T10:55:46;98608.81;;;22.79;50.33
69187;BME280;56301;56.864;60.554;2022-07-29T10:58:12;98613.56;;;22.77;50.87
69187;BME280;56301;56.864;60.554;2022-07-29T11:00:35;98609.50;;;22.81;50.74
69187;BME280;56301;56.864;60.554;2022-07-29T11:02:58;98603.75;;;22.76;50.97
69187;BME280;56301;56.864;60.554;2022-07-29T11:05:20;98609.34;;;22.75;51.09
69187;BME280;56301;56.864;60.554;2022-07-29T11:10:24;98601.56;;;22.80;50.89
69187;BME280;56301;56.864;60.554;2022-07-29T11:12:47;98595.59;;;23.01;51.89
69187;BME280;56301;56.864;60.554;2022-07-29T11:15:10;98595.03;;;23.14;52.24
69187;BME280;56301;56.864;60.554;2022-07-29T11:20:34;98591.59;;;23.28;52.04
69187;BME280;56301;56.864;60.554;2022-07-29T11:22:57;98592.56;;;23.35;50.73
69187;BME280;56301;56.864;60.554;2022-07-29T11:25:20;98592.00;;;23.40;49.97
69187;BME280;56301;56.864;60.554;2022-07-29T11:27:42;98575.44;;;23.43;50.42
69187;BME280;56301;56.864;60.554;2022-07-29T11:30:06;98585.03;;;23.45;50.73
69187;BME280;56301;56.864;60.554;2022-07-29T11:32:37;98587.38;;;23.48;50.72
69187;BME280;56301;56.864;60.554;2022-07-29T11:35:19;98581.81;;;23.50;49.62
69187;BME280;56301;56.864;60.554;2022-07-29T11:37:41;98591.59;;;23.51;49.55
69187;BME280;56301;56.864;60.554;2022-07-29T11:47:19;98575.78;;;23.63;48.83
69187;BME280;56301;56.864;60.554;2022-07-29T11:49:42;98576.81;;;23.62;48.03
69187;BME280;56301;56.864;60.554;2022-07-29T11:52:06;98582.03;;;23.63;49.08
69187;BME280;56301;56.864;60.554;2022-07-29T11:54:32;98577.47;;;23.64;47.52
69187;BME280;56301;56.864;60.554;2022-07-29T11:56:55;98578.13;;;23.66;48.07
69187;BME280;56301;56.864;60.554;2022-07-29T11:59:19;98577.97;;;23.67;47.36
69187;BME280;56301;56.864;60.554;2022-07-29T12:01:51;98570.53;;;23.69;47.48
69187;BME280;56301;56.864;60.554;2022-07-29T12:04:14;98563.63;;;23.67;47.03
69187;BME280;56301;56.864;60.554;2022-07-29T12:06:36;98560.94;;;23.67;47.33
69187;BME280;56301;56.864;60.554;2022-07-29T12:08:59;98567.16;;;23.67;47.39
69187;BME280;56301;56.864;60.554;2022-07-29T12:11:21;98569.72;;;23.69;46.13
69187;BME280;56301;56.864;60.554;2022-07-29T12:13:43;98568.88;;;23.68;46.86
69187;BME280;56301;56.864;60.554;2022-07-29T12:16:06;98573.91;;;23.71;46.49
69187;BME280;56301;56.864;60.554;2022-07-29T12:18:28;98568.50;;;23.71;46.32
69187;BME280;56301;56.864;60.554;2022-07-29T12:21:01;98562.72;;;23.74;46.52
69187;BME280;56301;56.864;60.554;2022-07-29T12:23:23;98574.41;;;23.75;45.87
69187;BME280;56301;56.864;60.554;2022-07-29T12:25:45;98572.31;;;23.77;46.26
69187;BME280;56301;56.864;60.554;2022-07-29T12:28:13;98573.16;;;23.77;46.55
69187;BME280;56301;56.864;60.554;2022-07-29T12:30:38;98570.47;;;23.77;46.71
69187;BME280;56301;56.864;60.554;2022-07-29T12:33:01;98577.56;;;23.78;46.99
69187;BME280;56301;56.864;60.554;2022-07-29T12:35:23;98571.13;;;23.80;46.95
69187;BME280;56301;56.864;60.554;2022-07-29T12:37:46;98571.97;;;23.80;46.73
69187;BME280;56301;56.864;60.554;2022-07-29T12:40:10;98576.19;;;23.83;47.07
69187;BME280;56301;56.864;60.554;2022-07-29T12:42:33;98568.06;;;23.83;47.13
69187;BME280;56301;56.864;60.554;2022-07-29T12:44:56;98567.03;;;23.84;47.23
69187;BME280;56301;56.864;60.554;2022-07-29T12:47:19;98559.59;;;23.86;47.46
69187;BME280;56301;56.864;60.554;2022-07-29T12:49:41;98568.34;;;23.88;47.22
69187;BME280;56301;56.864;60.554;2022-07-29T12:54:59;98558.03;;;23.91;47.24
69187;BME280;56301;56.864;60.554;2022-07-29T12:57:22;98558.84;;;23.92;47.36
69187;BME280;56301;56.864;60.554;2022-07-29T12:59:44;98555.13;;;23.93;47.25
69187;BME280;56301;56.864;60.554;2022-07-29T13:02:07;98555.13;;;23.93;47.69
69187;BME280;56301;56.864;60.554;2022-07-29T13:04:30;98543.31;;;23.94;47.28
69187;BME280;56301;56.864;60.554;2022-07-29T13:07:00;98565.56;;;23.96;47.65
69187;BME280;56301;56.864;60.554;2022-07-29T13:09:23;98556.47;;;23.97;47.43
69187;BME280;56301;56.864;60.554;2022-07-29T13:11:46;98556.47;;;23.97;47.78
69187;BME280;56301;56.864;60.554;2022-07-29T13:14:09;98564.38;;;23.98;47.45